createdAt,value
2023-02-13T00:01:32.754Z,101353.52
2023-02-13T00:04:01.028Z,101346.65
2023-02-13T00:06:31.940Z,101349.04
2023-02-13T00:09:01.127Z,101345.98
2023-02-13T00:11:30.173Z,101338.57
2023-02-13T00:13:59.214Z,101341.11
2023-02-13T00:16:28.524Z,101330.05
2023-02-13T00:19:03.168Z,101325.38
2023-02-13T00:21:36.148Z,101323.44
2023-02-13T00:24:06.100Z,101312.80
2023-02-13T00:26:34.574Z,101318.36
2023-02-13T00:29:07.055Z,101320.40
2023-02-13T00:31:36.142Z,101314.04
2023-02-13T00:34:04.333Z,101313.56
2023-02-13T00:36:32.839Z,101313.25
2023-02-13T00:39:00.806Z,101308.27
2023-02-13T00:41:30.693Z,101312.02
2023-02-13T00:43:59.439Z,101314.00
2023-02-13T00:46:27.947Z,101307.51
2023-02-13T00:48:56.754Z,101306.02
2023-02-13T00:51:25.203Z,101300.39
2023-02-13T00:53:54.058Z,101297.75
2023-02-13T00:56:22.621Z,101292.08
2023-02-13T00:58:53.088Z,101293.06
2023-02-13T01:01:22.162Z,101291.60
2023-02-13T01:03:51.062Z,101289.09
2023-02-13T01:06:20.030Z,101293.41
2023-02-13T01:08:48.857Z,101282.88
2023-02-13T01:11:19.298Z,101289.24
2023-02-13T01:13:48.189Z,101287.34
2023-02-13T01:16:18.107Z,101289.36
2023-02-13T01:18:47.271Z,101288.32
2023-02-13T01:21:18.639Z,101287.72
2023-02-13T01:23:54.168Z,101286.04
2023-02-13T01:26:24.406Z,101285.86
2023-02-13T01:28:55.035Z,101284.30
2023-02-13T01:31:26.803Z,101283.25
2023-02-13T01:33:58.392Z,101283.56
2023-02-13T01:36:27.097Z,101279.04
2023-02-13T01:38:58.082Z,101282.16
2023-02-13T01:41:27.549Z,101278.02
2023-02-13T01:44:00.194Z,101281.29
2023-02-13T01:46:39.102Z,101272.64
2023-02-13T01:49:12.236Z,101278.24
2023-02-13T01:51:42.066Z,101280.37
2023-02-13T01:54:19.120Z,101285.30
2023-02-13T01:56:54.355Z,101283.58
2023-02-13T01:59:30.127Z,101289.15
2023-02-13T02:01:59.191Z,101287.22
2023-02-13T02:04:32.369Z,101291.23
2023-02-13T02:07:05.515Z,101292.58
2023-02-13T02:09:39.523Z,101287.48
2023-02-13T02:12:26.658Z,101287.39
2023-02-13T02:15:00.670Z,101285.35
2023-02-13T02:17:33.020Z,101279.75
2023-02-13T02:20:23.456Z,101279.98
2023-02-13T02:23:32.657Z,101284.02
2023-02-13T02:26:06.224Z,101286.48
2023-02-13T02:29:07.147Z,101281.05
2023-02-13T02:31:49.837Z,101283.30
2023-02-13T02:34:52.966Z,101281.58
2023-02-13T02:37:24.511Z,101285.36
2023-02-13T02:39:59.173Z,101278.67
2023-02-13T02:42:57.166Z,101274.23
2023-02-13T02:45:30.871Z,101267.73
2023-02-13T02:48:51.728Z,101263.23
2023-02-13T02:51:36.684Z,101262.58
2023-02-13T02:54:43.643Z,101253.56
2023-02-13T02:57:22.373Z,101253.52
2023-02-13T03:00:15.595Z,101250.20
2023-02-13T03:03:03.033Z,101247.16
2023-02-13T03:06:03.377Z,101244.36
2023-02-13T03:08:51.181Z,101240.70
2023-02-13T03:11:39.225Z,101226.45
2023-02-13T03:14:09.887Z,101225.89
2023-02-13T03:16:57.281Z,101227.63
2023-02-13T03:20:16.339Z,101228.20
2023-02-13T03:23:10.216Z,101234.55
2023-02-13T03:26:00.379Z,101233.64
2023-02-13T03:28:57.074Z,101231.02
2023-02-13T03:31:29.974Z,101238.48
2023-02-13T03:34:05.312Z,101239.02
2023-02-13T03:37:10.233Z,101235.27
2023-02-13T03:39:47.829Z,101231.90
2023-02-13T03:42:34.217Z,101228.79
2023-02-13T03:45:31.133Z,101227.23
2023-02-13T03:48:00.596Z,101228.28
2023-02-13T03:50:29.164Z,101222.93
2023-02-13T03:53:03.535Z,101223.67
2023-02-13T03:55:56.984Z,101226.35
2023-02-13T03:58:49.492Z,101220.77
2023-02-13T04:01:19.302Z,101223.80
2023-02-13T04:04:09.991Z,101221.27
2023-02-13T04:06:47.837Z,101221.68
2023-02-13T04:09:17.369Z,101226.13
2023-02-13T04:11:57.857Z,101223.65
2023-02-13T04:14:33.264Z,101225.70
2023-02-13T04:17:09.449Z,101215.45
2023-02-13T04:19:38.139Z,101212.20
2023-02-13T04:22:06.185Z,101212.09
2023-02-13T04:24:34.775Z,101212.37
2023-02-13T04:27:03.710Z,101208.02
2023-02-13T04:29:32.598Z,101204.80
2023-02-13T04:32:01.204Z,101200.84
2023-02-13T04:34:30.209Z,101195.03
2023-02-13T04:36:59.058Z,101194.89
2023-02-13T04:39:27.622Z,101195.47
2023-02-13T04:41:56.601Z,101190.48
2023-02-13T04:44:25.236Z,101185.59
2023-02-13T04:46:53.822Z,101175.60
2023-02-13T04:49:22.652Z,101168.59
2023-02-13T04:51:51.395Z,101162.79
2023-02-13T04:54:20.319Z,101159.77
2023-02-13T04:56:48.821Z,101158.48
2023-02-13T04:59:17.357Z,101152.81
2023-02-13T05:01:47.709Z,101151.89
2023-02-13T05:04:17.777Z,101153.87
2023-02-13T05:06:46.389Z,101154.20
2023-02-13T05:09:14.887Z,101154.10
2023-02-13T05:11:43.901Z,101160.20
2023-02-13T05:14:12.567Z,101164.30
2023-02-13T05:16:41.171Z,101158.40
2023-02-13T05:19:10.419Z,101160.73
2023-02-13T05:21:58.494Z,101156.77
2023-02-13T05:24:26.941Z,101159.38
2023-02-13T05:26:55.693Z,101159.68
2023-02-13T05:29:24.241Z,101160.73
2023-02-13T05:31:54.424Z,101163.40
2023-02-13T05:34:24.361Z,101163.31
2023-02-13T05:36:53.462Z,101161.74
2023-02-13T05:39:21.994Z,101157.50
2023-02-13T05:41:50.696Z,101159.58
2023-02-13T05:44:19.526Z,101156.80
2023-02-13T05:46:49.648Z,101150.84
2023-02-13T05:49:20.037Z,101144.14
2023-02-13T05:51:49.094Z,101138.30
2023-02-13T05:54:17.721Z,101137.75
2023-02-13T05:56:47.108Z,101136.02
2023-02-13T05:59:16.146Z,101126.67
2023-02-13T06:01:45.140Z,101130.67
2023-02-13T06:04:13.987Z,101130.32
2023-02-13T06:06:43.111Z,101128.70
2023-02-13T06:09:11.901Z,101125.28
2023-02-13T06:11:42.855Z,101128.17
2023-02-13T06:14:11.837Z,101125.05
2023-02-13T06:16:44.170Z,101127.21
2023-02-13T06:19:12.846Z,101125.95
2023-02-13T06:21:41.628Z,101123.70
2023-02-13T06:24:10.597Z,101119.86
2023-02-13T06:26:39.710Z,101117.05
2023-02-13T06:29:09.568Z,101113.93
2023-02-13T06:31:38.424Z,101111.62
2023-02-13T06:34:08.339Z,101105.27
2023-02-13T06:36:38.693Z,101105.52
2023-02-13T06:39:07.314Z,101101.96
2023-02-13T06:41:36.637Z,101098.87
2023-02-13T06:44:08.139Z,101103.05
2023-02-13T06:46:37.446Z,101101.44
2023-02-13T06:49:10.704Z,101101.14
2023-02-13T06:51:40.883Z,101099.23
2023-02-13T06:54:14.257Z,101100.68
2023-02-13T06:56:43.041Z,101100.52
2023-02-13T06:59:11.635Z,101101.23
2023-02-13T07:01:40.700Z,101107.44
2023-02-13T07:04:09.434Z,101116.91
2023-02-13T07:06:39.655Z,101125.77
2023-02-13T07:09:08.223Z,101125.21
2023-02-13T07:11:37.773Z,101139.49
2023-02-13T07:14:07.975Z,101144.48
2023-02-13T07:16:39.815Z,101153.96
2023-02-13T07:19:08.956Z,101159.68
2023-02-13T07:21:38.386Z,101167.30
2023-02-13T07:24:08.237Z,101178.77
2023-02-13T07:26:37.108Z,101189.38
2023-02-13T07:29:11.584Z,101189.02
2023-02-13T07:31:40.924Z,101197.08
2023-02-13T07:34:09.648Z,101196.98
2023-02-13T07:36:38.423Z,101198.11
2023-02-13T07:39:08.823Z,101210.34
2023-02-13T07:41:38.181Z,101218.90
2023-02-13T07:44:09.192Z,101228.89
2023-02-13T07:46:38.288Z,101236.04
2023-02-13T07:49:07.108Z,101251.32
2023-02-13T07:51:35.978Z,101263.30
2023-02-13T07:54:05.061Z,101275.61
2023-02-13T07:56:35.106Z,101291.66
2023-02-13T07:59:03.744Z,101302.85
2023-02-13T08:01:33.447Z,101320.40
2023-02-13T08:04:02.116Z,101332.86
2023-02-13T08:06:31.154Z,101344.03
2023-02-13T08:09:18.295Z,101352.86
2023-02-13T08:11:56.692Z,101364.59
2023-02-13T08:14:26.507Z,101367.23
2023-02-13T08:16:56.805Z,101372.10
2023-02-13T08:19:25.587Z,101371.58
2023-02-13T08:21:54.318Z,101381.71
2023-02-13T08:24:23.337Z,101385.05
2023-02-13T08:26:53.182Z,101394.04
2023-02-13T08:29:21.686Z,101400.10
2023-02-13T08:31:50.264Z,101412.09
2023-02-13T08:34:19.390Z,101418.17
2023-02-13T08:36:47.973Z,101421.13
2023-02-13T08:39:16.502Z,101428.05
2023-02-13T08:41:45.213Z,101432.81
2023-02-13T08:44:16.502Z,101435.15
2023-02-13T08:46:48.950Z,101431.92
2023-02-13T08:49:18.032Z,101428.20
2023-02-13T08:51:46.497Z,101422.30
2023-02-13T08:54:15.417Z,101415.67
2023-02-13T08:56:45.012Z,101421.88
2023-02-13T08:59:14.109Z,101419.55
2023-02-13T09:01:42.912Z,101419.66
2023-02-13T09:04:11.600Z,101420.20
2023-02-13T09:06:40.595Z,101423.39
2023-02-13T09:09:09.091Z,101425.44
2023-02-13T09:11:37.717Z,101425.36
2023-02-13T09:14:07.140Z,101424.05
2023-02-13T09:16:37.095Z,101426.45
2023-02-13T09:19:05.965Z,101435.02
2023-02-13T09:21:35.106Z,101438.48
2023-02-13T09:24:08.112Z,101439.63
2023-02-13T09:26:40.112Z,101441.66
2023-02-13T09:29:08.803Z,101439.60
2023-02-13T09:31:39.642Z,101441.61
2023-02-13T09:34:08.875Z,101438.05
2023-02-13T09:36:37.550Z,101431.55
2023-02-13T09:39:06.467Z,101431.60
2023-02-13T09:41:38.097Z,101430.11
2023-02-13T09:44:12.563Z,101428.19
2023-02-13T09:46:41.386Z,101426.34
2023-02-13T09:49:15.667Z,101419.23
2023-02-13T09:51:44.578Z,101413.69
2023-02-13T09:54:16.101Z,101415.03
2023-02-13T09:56:50.243Z,101419.39
2023-02-13T09:59:37.800Z,101416.96
2023-02-13T10:02:42.186Z,101418.27
2023-02-13T10:05:23.257Z,101416.64
2023-02-13T10:08:14.681Z,101415.83
2023-02-13T10:11:20.776Z,101423.38
2023-02-13T10:14:01.914Z,101421.29
2023-02-13T10:16:33.283Z,101423.15
2023-02-13T10:19:14.381Z,101421.34
2023-02-13T10:21:53.234Z,101423.64
2023-02-13T10:24:27.964Z,101423.90
2023-02-13T10:26:56.970Z,101426.45
2023-02-13T10:30:09.721Z,101424.80
2023-02-13T10:32:50.132Z,101423.20
2023-02-13T10:35:23.847Z,101427.91
2023-02-13T10:37:54.878Z,101441.02
2023-02-13T10:40:28.431Z,101439.35
2023-02-13T10:43:19.043Z,101441.48
2023-02-13T10:46:03.944Z,101444.33
2023-02-13T10:48:39.390Z,101476.81
2023-02-13T10:51:40.656Z,101506.36
2023-02-13T10:54:32.340Z,101506.98
2023-02-13T10:57:13.953Z,101504.98
2023-02-13T11:00:03.100Z,101508.02
2023-02-13T11:02:34.955Z,101504.77
2023-02-13T11:05:21.812Z,101500.05
2023-02-13T11:07:51.538Z,101501.46
2023-02-13T11:10:23.061Z,101500.54
2023-02-13T11:12:52.045Z,101496.20
2023-02-13T11:15:32.049Z,101495.15
2023-02-13T11:18:04.007Z,101497.55
2023-02-13T11:20:38.582Z,101512.84
2023-02-13T11:23:17.750Z,101516.73
2023-02-13T11:26:13.966Z,101515.55
2023-02-13T11:28:53.122Z,101520.68
2023-02-13T11:31:26.682Z,101521.26
2023-02-13T11:33:58.652Z,101527.29
2023-02-13T11:36:33.113Z,101523.64
2023-02-13T11:39:06.467Z,101523.22
2023-02-13T11:41:42.643Z,101520.67
2023-02-13T11:44:28.635Z,101518.02
2023-02-13T11:46:59.113Z,101510.46
2023-02-13T11:49:35.247Z,101509.23
2023-02-13T11:52:11.572Z,101507.91
2023-02-13T11:54:44.134Z,101505.89
2023-02-13T11:57:20.388Z,101501.41
2023-02-13T11:59:50.903Z,101498.96
2023-02-13T12:02:23.667Z,101492.17
2023-02-13T12:05:13.585Z,101485.27
2023-02-13T12:07:43.553Z,101484.45
2023-02-13T12:10:15.373Z,101482.08
2023-02-13T12:13:06.610Z,101475.41
2023-02-13T12:15:36.233Z,101471.61
2023-02-13T12:18:07.413Z,101464.29
2023-02-13T12:21:01.266Z,101459.10
2023-02-13T12:23:54.626Z,101455.52
2023-02-13T12:26:39.667Z,101442.93
2023-02-13T12:29:35.011Z,101443.11
2023-02-13T12:32:14.214Z,101439.70
2023-02-13T12:35:08.252Z,101435.37
2023-02-13T12:37:42.965Z,101435.29
2023-02-13T12:40:21.286Z,101430.11
2023-02-13T12:43:23.399Z,101426.14
2023-02-13T12:46:00.549Z,101423.20
2023-02-13T12:48:35.720Z,101417.73
2023-02-13T12:51:58.673Z,101414.73
2023-02-13T12:54:33.509Z,101417.35
2023-02-13T12:57:23.925Z,101413.02
2023-02-13T13:00:08.443Z,101406.61
2023-02-13T13:02:51.483Z,101400.32
2023-02-13T13:06:10.885Z,101394.00
2023-02-13T13:09:00.319Z,101387.80
2023-02-13T13:11:44.529Z,101386.91
2023-02-13T13:14:51.170Z,101388.46
2023-02-13T13:17:27.010Z,101389.33
2023-02-13T13:20:14.779Z,101388.70
2023-02-13T13:23:23.797Z,101386.31
2023-02-13T13:25:56.054Z,101383.54
2023-02-13T13:28:46.048Z,101379.71
2023-02-13T13:31:15.173Z,101378.42
2023-02-13T13:33:49.789Z,101372.40
2023-02-13T13:36:36.876Z,101371.52
2023-02-13T13:39:12.407Z,101364.33
2023-02-13T13:41:45.868Z,101353.45
2023-02-13T13:44:22.391Z,101349.36
2023-02-13T13:47:09.821Z,101341.92
2023-02-13T13:49:55.480Z,101340.32
2023-02-13T13:52:23.975Z,101331.90
2023-02-13T13:54:54.949Z,101328.92
2023-02-13T13:57:25.022Z,101327.48
2023-02-13T14:00:02.376Z,101320.09
2023-02-13T14:02:40.296Z,101320.13
2023-02-13T14:05:19.990Z,101316.30
2023-02-13T14:07:57.464Z,101304.50
2023-02-13T14:10:26.622Z,101299.27
2023-02-13T14:12:55.614Z,101294.56
2023-02-13T14:15:39.747Z,101294.63
2023-02-13T14:18:12.268Z,101287.27
2023-02-13T14:20:51.293Z,101278.73
2023-02-13T14:24:20.641Z,101274.91
2023-02-13T14:26:57.891Z,101259.98
2023-02-13T14:29:34.612Z,101252.10
2023-02-13T14:32:08.794Z,101244.95
2023-02-13T14:34:42.564Z,101238.91
2023-02-13T14:37:11.283Z,101238.95
2023-02-13T14:39:42.372Z,101232.08
2023-02-13T14:42:27.461Z,101231.48
2023-02-13T14:45:00.578Z,101226.41
2023-02-13T14:47:35.976Z,101220.31
2023-02-13T14:50:05.564Z,101219.66
2023-02-13T14:52:35.973Z,101210.27
2023-02-13T14:55:09.591Z,101207.38
2023-02-13T14:57:47.365Z,101198.95
2023-02-13T15:00:32.337Z,101194.84
2023-02-13T15:03:08.704Z,101186.45
2023-02-13T15:05:38.565Z,101184.23
2023-02-13T15:08:17.347Z,101181.34
2023-02-13T15:10:52.808Z,101187.63
2023-02-13T15:13:29.189Z,101187.32
2023-02-13T15:16:01.884Z,101181.47
2023-02-13T15:18:34.697Z,101180.77
2023-02-13T15:21:04.347Z,101174.89
2023-02-13T15:23:33.719Z,101175.20
2023-02-13T15:26:06.249Z,101176.26
2023-02-13T15:28:36.322Z,101176.54
2023-02-13T15:31:07.273Z,101178.67
2023-02-13T15:33:45.796Z,101167.90
2023-02-13T15:36:19.326Z,101162.74
2023-02-13T15:38:48.471Z,101164.91
2023-02-13T15:41:23.391Z,101159.50
2023-02-13T15:43:58.702Z,101155.33
2023-02-13T15:46:34.035Z,101151.73
2023-02-13T15:49:16.057Z,101148.95
2023-02-13T15:51:45.863Z,101144.15
2023-02-13T15:54:26.644Z,101140.36
2023-02-13T15:56:58.147Z,101132.42
2023-02-13T15:59:32.069Z,101128.31
2023-02-13T16:02:00.904Z,101122.95
2023-02-13T16:04:30.592Z,101116.23
2023-02-13T16:07:19.279Z,101110.01
2023-02-13T16:09:48.371Z,101104.19
2023-02-13T16:12:35.869Z,101093.61
2023-02-13T16:15:04.818Z,101091.92
2023-02-13T16:17:35.699Z,101090.95
2023-02-13T16:20:06.945Z,101083.83
2023-02-13T16:22:38.168Z,101075.64
2023-02-13T16:25:13.280Z,101067.06
2023-02-13T16:27:48.352Z,101059.83
2023-02-13T16:30:37.789Z,101050.30
2023-02-13T16:33:17.957Z,101050.27
2023-02-13T16:35:49.377Z,101042.46
2023-02-13T16:38:48.566Z,101035.80
2023-02-13T16:41:28.973Z,101034.23
2023-02-13T16:44:07.223Z,101031.14
2023-02-13T16:46:36.247Z,101022.48
2023-02-13T16:49:08.636Z,101014.94
2023-02-13T16:52:12.584Z,101012.98
2023-02-13T16:54:48.212Z,101011.11
2023-02-13T16:57:24.297Z,101006.29
2023-02-13T17:00:06.381Z,100997.98
2023-02-13T17:02:40.139Z,101002.23
2023-02-13T17:05:09.052Z,101007.30
2023-02-13T17:07:45.234Z,101003.30
2023-02-13T17:10:23.051Z,100997.77
2023-02-13T17:12:52.054Z,100990.98
2023-02-13T17:15:22.949Z,100981.85
2023-02-13T17:17:51.958Z,100977.03
2023-02-13T17:20:23.195Z,100966.89
2023-02-13T17:22:53.624Z,100953.73
2023-02-13T17:25:24.650Z,100952.70
2023-02-13T17:28:09.516Z,100953.48
2023-02-13T17:30:41.028Z,100953.87
2023-02-13T17:33:21.586Z,100947.45
2023-02-13T17:35:50.815Z,100941.77
2023-02-13T17:38:20.225Z,100933.15
2023-02-13T17:40:49.760Z,100929.02
2023-02-13T17:43:19.005Z,100919.90
2023-02-13T17:45:47.648Z,100907.52
2023-02-13T17:48:17.376Z,100897.58
2023-02-13T17:50:45.868Z,100890.33
2023-02-13T17:53:24.710Z,100887.20
2023-02-13T17:55:57.373Z,100877.33
2023-02-13T17:58:26.262Z,100865.44
2023-02-13T18:00:57.725Z,100849.83
2023-02-13T18:03:26.583Z,100839.41
2023-02-13T18:05:58.016Z,100823.47
2023-02-13T18:08:26.917Z,100815.52
2023-02-13T18:10:57.025Z,100797.83
2023-02-13T18:13:26.301Z,100793.55
2023-02-13T18:15:55.092Z,100782.88
2023-02-13T18:18:24.136Z,100776.27
2023-02-13T18:20:57.732Z,100763.89
2023-02-13T18:23:27.067Z,100765.35
2023-02-13T18:26:06.122Z,100757.95
2023-02-13T18:28:36.642Z,100743.36
2023-02-13T18:31:05.929Z,100734.89
2023-02-13T18:33:36.088Z,100725.40
2023-02-13T18:36:05.403Z,100716.20
2023-02-13T18:38:34.229Z,100707.98
2023-02-13T18:41:03.936Z,100694.34
2023-02-13T18:43:32.873Z,100697.23
2023-02-13T18:46:01.880Z,100689.53
2023-02-13T18:48:35.814Z,100672.72
2023-02-13T18:51:05.501Z,100648.73
2023-02-13T18:53:34.460Z,100637.76
2023-02-13T18:56:05.067Z,100624.59
2023-02-13T18:58:34.586Z,100619.19
2023-02-13T19:01:12.683Z,100610.38
2023-02-13T19:03:41.712Z,100601.99
2023-02-13T19:06:11.797Z,100586.19
2023-02-13T19:08:40.674Z,100568.90
2023-02-13T19:11:16.831Z,100553.45
2023-02-13T19:13:45.653Z,100541.35
2023-02-13T19:16:16.540Z,100525.98
2023-02-13T19:18:53.369Z,100518.32
2023-02-13T19:21:30.542Z,100511.55
2023-02-13T19:24:01.754Z,100497.27
2023-02-13T19:26:30.974Z,100481.66
2023-02-13T19:29:00.341Z,100472.80
2023-02-13T19:31:31.257Z,100460.51
2023-02-13T19:34:03.208Z,100452.31
2023-02-13T19:36:32.341Z,100430.61
2023-02-13T19:39:04.141Z,100413.92
2023-02-13T19:41:33.276Z,100391.77
2023-02-13T19:44:02.848Z,100383.21
2023-02-13T19:46:32.372Z,100367.45
2023-02-13T19:49:01.779Z,100351.86
2023-02-13T19:51:32.030Z,100328.98
2023-02-13T19:54:06.856Z,100305.23
2023-02-13T19:56:37.465Z,100269.13
2023-02-13T19:59:07.580Z,100249.73
2023-02-13T20:01:37.033Z,100225.73
2023-02-13T20:04:06.470Z,100196.04
2023-02-13T20:06:36.660Z,100169.72
2023-02-13T20:09:12.494Z,100137.29
2023-02-13T20:11:41.612Z,100105.90
2023-02-13T20:14:15.264Z,100074.95
2023-02-13T20:16:46.581Z,100041.39
2023-02-13T20:19:16.572Z,100006.85
2023-02-13T20:21:46.134Z,99973.14
2023-02-13T20:24:14.823Z,99941.81
2023-02-13T20:26:43.846Z,99912.10
2023-02-13T20:29:13.393Z,99877.45
2023-02-13T20:31:42.532Z,99847.49
2023-02-13T20:34:12.035Z,99814.64
2023-02-13T20:36:44.020Z,99777.11
2023-02-13T20:39:13.129Z,99732.83
2023-02-13T20:41:42.226Z,99672.77
2023-02-13T20:44:12.258Z,99624.96
2023-02-13T20:46:41.792Z,99602.30
2023-02-13T20:49:11.129Z,99574.41
2023-02-13T20:51:40.266Z,99541.19
2023-02-13T20:54:10.183Z,99517.70
2023-02-13T20:56:40.257Z,99482.97
2023-02-13T20:59:09.568Z,99453.45
2023-02-13T21:01:41.628Z,99423.92
2023-02-13T21:04:13.871Z,99407.48
2023-02-13T21:06:42.411Z,99382.64
2023-02-13T21:09:11.551Z,99364.27
2023-02-13T21:11:42.821Z,99343.96
2023-02-13T21:14:12.205Z,99323.80
2023-02-13T21:16:41.584Z,99302.23
2023-02-13T21:19:17.387Z,99283.13
2023-02-13T21:21:46.266Z,99265.05
2023-02-13T21:24:17.301Z,99245.53
2023-02-13T21:26:46.826Z,99231.55
2023-02-13T21:29:15.691Z,99223.55
2023-02-13T21:31:49.272Z,99217.33
2023-02-13T21:34:18.291Z,99214.61
2023-02-13T21:36:50.126Z,99212.39
2023-02-13T21:39:18.877Z,99212.92
2023-02-13T21:41:47.754Z,99215.52
2023-02-13T21:44:16.781Z,99210.05
2023-02-13T21:46:45.946Z,99192.93
2023-02-13T21:49:16.928Z,99182.91
2023-02-13T21:51:46.264Z,99176.52
2023-02-13T21:54:34.383Z,99175.70
2023-02-13T21:57:04.144Z,99163.54
2023-02-13T21:59:33.323Z,99158.98
2023-02-13T22:02:03.006Z,99161.92
2023-02-13T22:04:31.874Z,99173.61
2023-02-13T22:07:00.499Z,99171.94
2023-02-13T22:09:29.581Z,99193.75
2023-02-13T22:11:58.377Z,99194.66
2023-02-13T22:14:27.016Z,99196.95
2023-02-13T22:16:56.082Z,99190.52
2023-02-13T22:19:26.409Z,99187.26
2023-02-13T22:21:55.169Z,99186.02
2023-02-13T22:24:23.997Z,99179.09
2023-02-13T22:26:52.783Z,99172.56
2023-02-13T22:29:23.185Z,99168.80
2023-02-13T22:31:54.703Z,99163.30
2023-02-13T22:34:22.825Z,99155.46
2023-02-13T22:36:51.007Z,99151.16
2023-02-13T22:39:19.701Z,99143.98
2023-02-13T22:41:50.155Z,99143.81
2023-02-13T22:44:18.893Z,99132.95
2023-02-13T22:46:48.004Z,99132.64
2023-02-13T22:49:16.764Z,99132.35
2023-02-13T22:51:45.817Z,99135.13
2023-02-13T22:54:14.513Z,99132.23
2023-02-13T22:56:42.861Z,99130.63
2023-02-13T22:59:14.238Z,99125.49
2023-02-13T23:01:44.336Z,99124.40
2023-02-13T23:04:13.088Z,99124.80
2023-02-13T23:06:43.182Z,99117.69
2023-02-13T23:09:11.995Z,99114.89
2023-02-13T23:11:59.135Z,99117.38
2023-02-13T23:14:28.216Z,99122.66
2023-02-13T23:17:15.955Z,99126.27
2023-02-13T23:19:45.867Z,99126.91
2023-02-13T23:22:16.508Z,99123.63
2023-02-13T23:24:45.120Z,99132.70
2023-02-13T23:27:14.014Z,99136.45
2023-02-13T23:29:42.693Z,99132.05
2023-02-13T23:32:15.785Z,99126.19
2023-02-13T23:34:44.204Z,99123.31
2023-02-13T23:37:12.680Z,99116.73
2023-02-13T23:39:43.783Z,99112.91
2023-02-13T23:42:12.040Z,99112.58
2023-02-13T23:44:40.044Z,99119.11
2023-02-13T23:47:08.094Z,99130.14
2023-02-13T23:49:36.558Z,99135.76
2023-02-13T23:52:05.166Z,99139.16
2023-02-13T23:54:33.800Z,99136.10
2023-02-13T23:57:04.040Z,99137.13
2023-02-13T23:59:33.783Z,99136.22
